Time;durP1;ratioP1;P1;durP2;ratioP2;P2;SDS_P1;SDS_P2;PMS_P1;PMS_P2;Temp;Humidity;BMP_temperature;BMP_pressure;BME280_temperature;BME280_humidity;BME280_pressure;Samples;Min_cycle;Max_cycle;Signal;HPM_P1;HPM_P2
2022/04/10 00:01:17;;;;;;;;;;;;;;;-143.90;100.00;55446.81;2072120;28;19925;-64
2022/04/10 00:02:38;;;;;;;;;;;;;;;-143.90;100.00;55419.00;2071447;28;20456;-65
2022/04/10 00:03:59;;;;;;;;;;;;;;;-143.90;100.00;55446.81;2073176;28;19968;-64
2022/04/10 00:05:20;;;;;;;;;;;;;;;-143.90;100.00;55428.94;2067384;28;20012;-63
2022/04/10 00:06:40;;;;;;;;;;;;;;;-143.90;100.00;55476.59;2070669;28;19929;-64
2022/04/10 00:08:01;;;;;;;;;;;;;;;-143.90;100.00;55434.88;2071445;28;19921;-64
2022/04/10 00:09:21;;;;;;;;;;;;;;;-143.90;100.00;55468.63;2072366;28;19972;-64
2022/04/10 00:10:42;;;;;;;;;;;;;;;-143.90;100.00;55460.69;2073117;28;19921;-62
2022/04/10 00:12:03;;;;;;;;;;;;;;;-143.90;100.00;55428.94;2072807;28;19936;-63
2022/04/10 00:13:24;;;;;;;;;;;;;;;-143.90;100.00;55420.97;2073367;28;19975;-63
2022/04/10 00:14:45;;;;;;;;;;;;;;;-143.90;100.00;55403.13;2071932;28;19921;-63
2022/04/10 00:16:07;;;;;;;;;;;;;;;-143.90;100.00;55444.81;2073452;28;19922;-64
2022/04/10 00:17:31;;;;;;;;;;;;;;;-143.90;100.00;55456.72;2072722;28;19929;-64
2022/04/10 00:18:51;;;;;;;;;;;;;;;-143.90;100.00;55407.09;2072915;28;19957;-64
2022/04/10 00:20:12;;;;;;;;;;;;;;;-143.90;100.00;55458.72;2072860;28;19947;-64
2022/04/10 00:21:33;;;;;;;;;;;;;;;-143.90;100.00;55422.97;2073948;28;20012;-64
2022/04/10 00:22:53;;;;;;;;;;;;;;;-143.90;100.00;55442.81;2074293;28;19932;-64
2022/04/10 00:24:14;;;;;;;;;;;;;;;-143.90;100.00;55450.78;2073484;28;20717;-64
2022/04/10 00:25:35;;;;;;;;;;;;;;;-143.90;100.00;55397.16;2072464;28;19922;-62
2022/04/10 00:26:56;;;;;;;;;;;;;;;-143.90;100.00;55420.97;2072464;28;19925;-62
2022/04/10 00:28:16;;;;;;;;;;;;;;;-143.90;100.00;55448.78;2073514;28;20055;-64
2022/04/10 00:29:37;;;;;;;;;;;;;;;-143.90;100.00;55458.72;2073452;28;20387;-64
2022/04/10 00:31:00;;;;;;;;;;;;;;;-143.90;100.00;55468.63;2072923;28;19921;-64
2022/04/10 00:32:25;;;;;;;;;;;;;;;-143.90;100.00;55456.72;2066871;28;19941;-63
2022/04/10 00:33:46;;;;;;;;;;;;;;;-143.90;100.00;55432.91;2070799;28;21888;-63
2022/04/10 00:35:07;;;;;;;;;;;;;;;-143.90;100.00;55428.94;2070828;28;20455;-64
2022/04/10 00:36:28;;;;;;;;;;;;;;;-143.90;100.00;55428.94;2071887;28;19979;-63
2022/04/10 00:37:49;;;;;;;;;;;;;;;-143.90;100.00;55428.94;2067252;28;19925;-63
2022/04/10 00:39:10;;;;;;;;;;;;;;;-143.90;100.00;55428.94;2069685;28;19921;-64
2022/04/10 00:40:30;;;;;;;;;;;;;;;-143.90;100.00;55436.88;2073270;28;20379;-64
2022/04/10 00:41:51;;;;;;;;;;;;;;;-143.90;100.00;55456.72;2071953;28;19928;-63
2022/04/10 00:43:12;;;;;;;;;;;;;;;-143.90;100.00;55415.03;2073327;28;20487;-64
2022/04/10 00:44:34;;;;;;;;;;;;;;;-143.90;100.00;55444.81;2072853;28;19921;-62
2022/04/10 00:45:57;;;;;;;;;;;;;;;-143.90;100.00;55428.94;2072201;28;19928;-63
2022/04/10 00:47:18;;;;;;;;;;;;;;;-143.90;100.00;55446.81;2071493;28;20361;-64
2022/04/10 00:48:39;;;;;;;;;;;;;;;-143.90;100.00;55436.88;2071960;28;20661;-64
2022/04/10 00:50:01;;;;;;;;;;;;;;;-143.90;100.00;55476.59;2074116;28;19983;-62
2022/04/10 00:51:40;;;;;;;;;;;;;;;-143.90;100.00;55405.09;2073208;28;19925;-64
2022/04/10 00:53:01;;;;;;;;;;;;;;;-143.90;100.00;55428.94;2067891;28;19928;-65
2022/04/10 00:54:29;;;;;;;;;;;;;;;-143.90;100.00;55436.88;2070565;28;20324;-63
2022/04/10 00:55:50;;;;;;;;;;;;;;;-143.90;100.00;55428.94;2068158;28;20365;-63
2022/04/10 00:57:11;;;;;;;;;;;;;;;-143.90;100.00;55391.19;2069135;28;20332;-62
2022/04/10 00:58:32;;;;;;;;;;;;;;;-143.90;100.00;55456.72;2074492;28;19925;-64
2022/04/10 00:59:53;;;;;;;;;;;;;;;-143.90;100.00;55464.66;2074236;28;19921;-64
2022/04/10 01:01:14;;;;;;;;;;;;;;;-143.90;100.00;55428.94;2073017;28;19921;-63
2022/04/10 01:02:35;;;;;;;;;;;;;;;-143.90;100.00;55460.69;2072664;28;20602;-64
2022/04/10 01:03:56;;;;;;;;;;;;;;;-143.90;100.00;55430.91;2067662;28;20459;-62
2022/04/10 01:05:17;;;;;;;;;;;;;;;-143.90;100.00;55419.00;2072455;28;19972;-63
2022/04/10 01:06:37;;;;;;;;;;;;;;;-143.90;100.00;55448.78;2064852;28;20550;-64
2022/04/10 01:07:58;;;;;;;;;;;;;;;-143.90;100.00;55428.94;2066040;28;19929;-64
2022/04/10 01:09:20;;;;;;;;;;;;;;;-143.90;100.00;55452.75;2063756;28;19932;-62
2022/04/10 01:10:41;;;;;;;;;;;;;;;-143.90;100.00;55434.88;2063610;28;20024;-62
2022/04/10 01:12:02;;;;;;;;;;;;;;;-143.90;100.00;55440.84;2071961;28;19925;-63
2022/04/10 01:13:25;;;;;;;;;;;;;;;-143.90;100.00;55424.97;2073013;28;19964;-63
2022/04/10 01:14:46;;;;;;;;;;;;;;;-143.90;100.00;55397.16;2067322;28;19967;-64
2022/04/10 01:16:09;;;;;;;;;;;;;;;-143.90;100.00;55456.72;2072512;28;19925;-63
2022/04/10 01:17:30;;;;;;;;;;;;;;;-143.90;100.00;55436.88;2057055;28;19922;-64
2022/04/10 01:18:51;;;;;;;;;;;;;;;-143.90;100.00;55430.91;2056100;28;19922;-64
2022/04/10 01:20:12;;;;;;;;;;;;;;;-143.90;100.00;55424.97;2064651;28;19971;-62
2022/04/10 01:21:39;;;;;;;;;;;;;;;-143.90;100.00;55444.81;2063891;28;19921;-64
2022/04/10 01:23:01;;;;;;;;;;;;;;;-143.90;100.00;55432.91;2065925;28;19922;-64
2022/04/10 01:24:22;;;;;;;;;;;;;;;-143.90;100.00;55432.91;2065469;28;19921;-64
2022/04/10 01:25:44;;;;;;;;;;;;;;;-143.90;100.00;55436.88;2064045;28;20675;-64
2022/04/10 01:27:05;;;;;;;;;;;;;;;-143.90;100.00;55419.00;2070436;28;19967;-64
2022/04/10 01:28:27;;;;;;;;;;;;;;;-143.90;100.00;55426.94;2059615;28;19975;-62
2022/04/10 01:29:48;;;;;;;;;;;;;;;-143.90;100.00;55420.97;2069627;28;19925;-64
2022/04/10 01:31:08;;;;;;;;;;;;;;;-143.90;100.00;55436.88;2073628;28;20365;-63
2022/04/10 01:32:30;;;;;;;;;;;;;;;-143.90;100.00;55448.78;2072320;28;20428;-63
2022/04/10 01:33:50;;;;;;;;;;;;;;;-143.90;100.00;55417.00;2065665;28;20393;-63
2022/04/10 01:35:11;;;;;;;;;;;;;;;-143.90;100.00;55448.78;2070675;28;19921;-64
2022/04/10 01:36:33;;;;;;;;;;;;;;;-143.90;100.00;55420.97;2073696;28;19937;-64
2022/04/10 01:37:54;;;;;;;;;;;;;;;-143.90;100.00;55432.91;2072016;28;20096;-64
2022/04/10 01:39:20;;;;;;;;;;;;;;;-143.90;100.00;55371.34;2058526;28;19922;-63
2022/04/10 01:40:47;;;;;;;;;;;;;;;-143.90;100.00;55444.81;2064728;28;20073;-63
2022/04/10 01:42:09;;;;;;;;;;;;;;;-143.90;100.00;55450.78;2063834;28;19926;-65
2022/04/10 01:43:31;;;;;;;;;;;;;;;-143.90;100.00;55436.88;2064399;28;19921;-63
2022/04/10 01:44:51;;;;;;;;;;;;;;;-143.90;100.00;55456.72;2063123;28;19925;-64
2022/04/10 01:46:13;;;;;;;;;;;;;;;-143.90;100.00;55432.91;2064452;28;20048;-63
2022/04/10 01:47:34;;;;;;;;;;;;;;;-143.90;100.00;55448.78;2064210;28;19921;-64
2022/04/10 01:48:55;;;;;;;;;;;;;;;-143.90;100.00;55438.84;2063393;28;20023;-64
2022/04/10 01:50:16;;;;;;;;;;;;;;;-143.90;100.00;55470.63;2064771;28;19925;-64
2022/04/10 01:51:37;;;;;;;;;;;;;;;-143.90;100.00;55417.00;2065469;28;19925;-63
2022/04/10 01:52:57;;;;;;;;;;;;;;;-143.90;100.00;55440.84;2063375;28;19921;-64
2022/04/10 01:54:21;;;;;;;;;;;;;;;-143.90;100.00;55432.91;2063605;28;19929;-63
2022/04/10 01:55:42;;;;;;;;;;;;;;;-143.90;100.00;55424.97;2063836;28;20018;-64
2022/04/10 01:57:04;;;;;;;;;;;;;;;-143.90;100.00;55440.84;2063244;28;19926;-64
2022/04/10 01:58:26;;;;;;;;;;;;;;;-143.90;100.00;55448.78;2066153;28;20744;-63
2022/04/10 01:59:47;;;;;;;;;;;;;;;-143.90;100.00;55464.66;2053763;28;19971;-64
2022/04/10 02:01:08;;;;;;;;;;;;;;;-143.90;100.00;55444.81;2061353;28;20377;-64
2022/04/10 02:02:29;;;;;;;;;;;;;;;-143.90;100.00;55409.06;2071785;28;20016;-64
2022/04/10 02:03:50;;;;;;;;;;;;;;;-143.90;100.00;55438.84;2073472;28;19932;-64
2022/04/10 02:05:11;;;;;;;;;;;;;;;-143.90;100.00;55420.97;2066679;28;19955;-64
2022/04/10 02:06:33;;;;;;;;;;;;;;;-143.90;100.00;55383.25;2061537;28;19929;-64
2022/04/10 02:07:54;;;;;;;;;;;;;;;-143.90;100.00;55413.03;2070777;28;19921;-64
2022/04/10 02:09:15;;;;;;;;;;;;;;;-143.90;100.00;55456.72;2065284;28;19922;-62
2022/04/10 02:10:36;;;;;;;;;;;;;;;-143.90;100.00;55430.91;2062994;28;20115;-64
2022/04/10 02:11:57;;;;;;;;;;;;;;;-143.90;100.00;55385.25;2071026;28;19975;-64
2022/04/10 02:13:19;;;;;;;;;;;;;;;-143.90;100.00;55450.78;2064575;28;20484;-61
2022/04/10 02:14:39;;;;;;;;;;;;;;;-143.90;100.00;55413.03;2065528;28;19952;-63
2022/04/10 02:16:00;;;;;;;;;;;;;;;-143.90;100.00;55432.91;2067711;28;19978;-63
2022/04/10 02:17:21;;;;;;;;;;;;;;;-143.90;100.00;55444.81;2071551;28;19925;-63
2022/04/10 02:18:42;;;;;;;;;;;;;;;-143.90;100.00;55440.84;2073026;28;19932;-64
2022/04/10 02:20:03;;;;;;;;;;;;;;;-143.90;100.00;55438.84;2065032;28;19928;-64
2022/04/10 02:21:23;;;;;;;;;;;;;;;-143.90;100.00;55413.03;2064880;28;20452;-63
2022/04/10 02:22:45;;;;;;;;;;;;;;;-143.90;100.00;55440.84;2061412;28;20016;-62
2022/04/10 02:24:08;;;;;;;;;;;;;;;-143.90;100.00;55446.81;2063778;28;20080;-64
2022/04/10 02:25:29;;;;;;;;;;;;;;;-143.90;100.00;55436.88;2073062;28;19925;-64
2022/04/10 02:26:50;;;;;;;;;;;;;;;-143.90;100.00;55432.91;2071573;28;19929;-64
2022/04/10 02:28:10;;;;;;;;;;;;;;;-143.90;100.00;55432.91;2072193;28;19941;-63
2022/04/10 02:29:31;;;;;;;;;;;;;;;-143.90;100.00;55456.72;2072767;28;19932;-63
2022/04/10 02:30:52;;;;;;;;;;;;;;;-143.90;100.00;55448.78;2066066;28;19927;-63
2022/04/10 02:32:13;;;;;;;;;;;;;;;-143.90;100.00;55468.63;2069172;28;19921;-63
2022/04/10 02:33:34;;;;;;;;;;;;;;;-143.90;100.00;55420.97;2065126;28;19921;-62
2022/04/10 02:34:54;;;;;;;;;;;;;;;-143.90;100.00;55401.13;2068809;28;20415;-63
2022/04/10 02:36:16;;;;;;;;;;;;;;;-143.90;100.00;55440.84;2065120;28;20444;-64
2022/04/10 02:37:37;;;;;;;;;;;;;;;-143.90;100.00;55417.00;2063279;28;19933;-63
2022/04/10 02:38:58;;;;;;;;;;;;;;;-143.90;100.00;55424.97;2067885;28;19925;-62
2022/04/10 02:40:19;;;;;;;;;;;;;;;-143.90;100.00;55432.91;2069396;28;19932;-63
2022/04/10 02:41:42;;;;;;;;;;;;;;;-143.90;100.00;55444.81;2071809;28;19925;-63
2022/04/10 02:43:03;;;;;;;;;;;;;;;-143.90;100.00;55428.94;2064942;28;19929;-62
2022/04/10 02:44:25;;;;;;;;;;;;;;;-143.90;100.00;55397.16;2070901;28;19928;-63
2022/04/10 02:45:45;;;;;;;;;;;;;;;-143.90;100.00;55464.66;2072842;28;20393;-63
2022/04/10 02:47:07;;;;;;;;;;;;;;;-143.90;100.00;55432.91;2065460;28;20714;-64
2022/04/10 02:48:27;;;;;;;;;;;;;;;-143.90;100.00;55432.91;2063011;28;20775;-64
2022/04/10 02:49:49;;;;;;;;;;;;;;;-143.90;100.00;55432.91;2062712;28;20290;-64
2022/04/10 02:51:10;;;;;;;;;;;;;;;-143.90;100.00;55417.00;2067166;28;20028;-63
2022/04/10 02:52:31;;;;;;;;;;;;;;;-143.90;100.00;55442.81;2070533;28;20471;-62
2022/04/10 02:53:52;;;;;;;;;;;;;;;-143.90;100.00;55440.84;2067081;28;20372;-63
2022/04/10 02:55:13;;;;;;;;;;;;;;;-143.90;100.00;55420.97;2063766;28;19993;-63
2022/04/10 02:56:34;;;;;;;;;;;;;;;-143.90;100.00;55450.78;2069548;28;19952;-63
2022/04/10 02:57:55;;;;;;;;;;;;;;;-143.90;100.00;55440.84;2074370;28;19921;-64
2022/04/10 02:59:17;;;;;;;;;;;;;;;-143.90;100.00;55422.97;2065996;28;20880;-64
2022/04/10 03:00:37;;;;;;;;;;;;;;;-143.90;100.00;55464.66;2070477;28;19980;-64
2022/04/10 03:01:58;;;;;;;;;;;;;;;-143.90;100.00;55448.78;2062805;28;19960;-63
2022/04/10 03:03:19;;;;;;;;;;;;;;;-143.90;100.00;55424.97;2070600;28;19925;-64
2022/04/10 03:04:40;;;;;;;;;;;;;;;-143.90;100.00;55468.63;2064621;28;19936;-64
2022/04/10 03:06:01;;;;;;;;;;;;;;;-143.90;100.00;55393.19;2071424;28;19948;-63
2022/04/10 03:07:21;;;;;;;;;;;;;;;-143.90;100.00;55420.97;2068541;28;20639;-64
2022/04/10 03:08:42;;;;;;;;;;;;;;;-143.90;100.00;55415.03;2071507;28;19925;-63
2022/04/10 03:10:03;;;;;;;;;;;;;;;-143.90;100.00;55444.81;2072945;28;19921;-64
2022/04/10 03:11:25;;;;;;;;;;;;;;;-143.90;100.00;55452.75;2069370;28;19922;-64
2022/04/10 03:12:46;;;;;;;;;;;;;;;-143.90;100.00;55452.75;2066554;28;19929;-64
2022/04/10 03:14:06;;;;;;;;;;;;;;;-143.90;100.00;55428.94;2069655;28;19921;-63
2022/04/10 03:15:27;;;;;;;;;;;;;;;-143.90;100.00;55415.03;2066858;28;19968;-63
2022/04/10 03:16:48;;;;;;;;;;;;;;;-143.90;100.00;55417.00;2070307;28;19921;-63
2022/04/10 03:18:09;;;;;;;;;;;;;;;-143.90;100.00;55440.84;2063696;28;19921;-64
2022/04/10 03:19:30;;;;;;;;;;;;;;;-143.90;100.00;55420.97;2068803;28;19944;-64
2022/04/10 03:20:51;;;;;;;;;;;;;;;-143.90;100.00;55413.03;2064874;28;19925;-64
2022/04/10 03:22:12;;;;;;;;;;;;;;;-143.90;100.00;55440.84;2065586;28;19921;-63
2022/04/10 03:23:33;;;;;;;;;;;;;;;-143.90;100.00;55444.81;2070700;28;20021;-64
2022/04/10 03:24:53;;;;;;;;;;;;;;;-143.90;100.00;55448.78;2064324;28;19921;-63
2022/04/10 03:26:14;;;;;;;;;;;;;;;-143.90;100.00;55424.97;2066740;28;19975;-64
2022/04/10 03:27:35;;;;;;;;;;;;;;;-143.90;100.00;55420.97;2064181;28;19973;-64
2022/04/10 03:28:56;;;;;;;;;;;;;;;-143.90;100.00;55424.97;2064583;28;19925;-63
2022/04/10 03:30:17;;;;;;;;;;;;;;;-143.90;100.00;55428.94;2067343;28;20283;-63
2022/04/10 03:31:38;;;;;;;;;;;;;;;-143.90;100.00;55424.97;2064405;28;20282;-62
2022/04/10 03:32:58;;;;;;;;;;;;;;;-143.90;100.00;55424.97;2063771;28;19926;-63
2022/04/10 03:34:20;;;;;;;;;;;;;;;-143.90;100.00;55424.97;2068274;28;19963;-63
2022/04/10 03:35:41;;;;;;;;;;;;;;;-143.90;100.00;55424.97;2065386;28;19921;-63
2022/04/10 03:37:04;;;;;;;;;;;;;;;-143.90;100.00;55432.91;2069836;28;19925;-63
2022/04/10 03:38:25;;;;;;;;;;;;;;;-143.90;100.00;55413.03;2067332;28;19928;-65
2022/04/10 03:39:46;;;;;;;;;;;;;;;-143.90;100.00;55417.00;2065948;28;19926;-64
2022/04/10 03:41:07;;;;;;;;;;;;;;;-143.90;100.00;55448.78;2068892;28;20734;-64
2022/04/10 03:42:28;;;;;;;;;;;;;;;-143.90;100.00;55417.00;2068064;28;20530;-62
2022/04/10 03:43:49;;;;;;;;;;;;;;;-143.90;100.00;55462.69;2067223;28;20056;-64
2022/04/10 03:45:11;;;;;;;;;;;;;;;-143.90;100.00;55420.97;2071183;28;19944;-63
2022/04/10 03:46:32;;;;;;;;;;;;;;;-143.90;100.00;55442.81;2066976;28;19956;-63
2022/04/10 03:47:54;;;;;;;;;;;;;;;-143.90;100.00;55405.09;2071454;28;19928;-63
2022/04/10 03:49:16;;;;;;;;;;;;;;;-143.90;100.00;55440.84;2064632;28;20344;-62
2022/04/10 03:50:37;;;;;;;;;;;;;;;-143.90;100.00;55456.72;2065221;28;20035;-63
2022/04/10 03:52:00;;;;;;;;;;;;;;;-143.90;100.00;55464.66;2065626;28;19931;-64
2022/04/10 03:53:20;;;;;;;;;;;;;;;-143.90;100.00;55411.06;2072382;28;19925;-63
2022/04/10 03:54:42;;;;;;;;;;;;;;;-143.90;100.00;55458.72;2068181;28;20018;-63
2022/04/10 03:56:03;;;;;;;;;;;;;;;-143.90;100.00;55440.84;2064244;28;20000;-62
2022/04/10 03:57:26;;;;;;;;;;;;;;;-143.90;100.00;55415.03;2065455;28;19921;-64
2022/04/10 03:58:46;;;;;;;;;;;;;;;-143.90;100.00;55417.00;2070143;28;19921;-63
2022/04/10 04:00:08;;;;;;;;;;;;;;;-143.90;100.00;55468.63;2072160;28;19947;-63
2022/04/10 04:01:35;;;;;;;;;;;;;;;-143.90;100.00;55472.63;2071876;28;19940;-64
2022/04/10 04:02:56;;;;;;;;;;;;;;;-143.90;100.00;55456.72;2064151;28;20462;-63
2022/04/10 04:04:21;;;;;;;;;;;;;;;-143.90;100.00;55411.06;2065146;28;19941;-63
2022/04/10 04:05:42;;;;;;;;;;;;;;;-143.90;100.00;55440.84;2062977;28;19922;-63
2022/04/10 04:07:06;;;;;;;;;;;;;;;-143.90;100.00;55420.97;2070476;28;19925;-63
2022/04/10 04:08:27;;;;;;;;;;;;;;;-143.90;100.00;55420.97;2066268;28;19993;-63
2022/04/10 04:09:49;;;;;;;;;;;;;;;-143.90;100.00;55424.97;2069907;28;20184;-64
2022/04/10 04:11:10;;;;;;;;;;;;;;;-143.90;100.00;55440.84;2063909;28;20551;-63
2022/04/10 04:12:33;;;;;;;;;;;;;;;-143.90;100.00;55424.97;2068565;28;19971;-62
2022/04/10 04:13:55;;;;;;;;;;;;;;;-143.90;100.00;55448.78;2067132;28;19921;-63
2022/04/10 04:15:16;;;;;;;;;;;;;;;-143.90;100.00;55428.94;2069687;28;19920;-63
2022/04/10 04:16:37;;;;;;;;;;;;;;;-143.90;100.00;55405.09;2072194;28;19928;-64
2022/04/10 04:17:58;;;;;;;;;;;;;;;-143.90;100.00;55432.91;2072963;28;19961;-63
2022/04/10 04:19:18;;;;;;;;;;;;;;;-143.90;100.00;55397.16;2063200;28;19936;-63
2022/04/10 04:20:39;;;;;;;;;;;;;;;-143.90;100.00;55448.78;2070528;28;19956;-62
2022/04/10 04:22:00;;;;;;;;;;;;;;;-143.90;100.00;55409.06;2072729;28;19922;-64
2022/04/10 04:23:20;;;;;;;;;;;;;;;-143.90;100.00;55397.16;2065474;28;20017;-64
2022/04/10 04:24:43;;;;;;;;;;;;;;;-143.90;100.00;55436.88;2068719;28;19925;-64
2022/04/10 04:26:05;;;;;;;;;;;;;;;-143.90;100.00;55436.88;2073146;28;19928;-63
2022/04/10 04:27:26;;;;;;;;;;;;;;;-143.90;100.00;55405.09;2072087;28;19964;-64
2022/04/10 04:28:46;;;;;;;;;;;;;;;-143.90;100.00;55446.81;2064647;28;19980;-64
2022/04/10 04:30:09;;;;;;;;;;;;;;;-143.90;100.00;55444.81;2072127;28;19967;-64
2022/04/10 04:31:33;;;;;;;;;;;;;;;-143.90;100.00;55393.19;2069129;28;20019;-64
2022/04/10 04:32:55;;;;;;;;;;;;;;;-143.90;100.00;55417.00;2072595;28;19982;-63
2022/04/10 04:34:16;;;;;;;;;;;;;;;-143.90;100.00;55452.75;2073807;28;20013;-63
2022/04/10 04:35:38;;;;;;;;;;;;;;;-143.90;100.00;55448.78;2067935;28;19928;-64
2022/04/10 04:36:59;;;;;;;;;;;;;;;-143.90;100.00;55417.00;2062431;28;19921;-64
2022/04/10 04:38:20;;;;;;;;;;;;;;;-143.90;100.00;55428.94;2071641;28;20430;-63
2022/04/10 04:39:41;;;;;;;;;;;;;;;-143.90;100.00;55420.97;2069951;28;19925;-64
2022/04/10 04:41:02;;;;;;;;;;;;;;;-143.90;100.00;55436.88;2062701;28;19987;-64
2022/04/10 04:42:23;;;;;;;;;;;;;;;-143.90;100.00;55424.97;2065233;28;19925;-64
2022/04/10 04:43:44;;;;;;;;;;;;;;;-143.90;100.00;55434.88;2064471;28;19921;-62
2022/04/10 04:45:06;;;;;;;;;;;;;;;-143.90;100.00;55420.97;2063401;28;19929;-64
2022/04/10 04:46:27;;;;;;;;;;;;;;;-143.90;100.00;55448.78;2072386;28;20001;-63
2022/04/10 04:47:48;;;;;;;;;;;;;;;-143.90;100.00;55419.00;2068323;28;19960;-63
2022/04/10 04:49:09;;;;;;;;;;;;;;;-143.90;100.00;55420.97;2055532;28;19926;-64
2022/04/10 04:50:30;;;;;;;;;;;;;;;-143.90;100.00;55432.91;2065613;28;19964;-64
2022/04/10 04:51:50;;;;;;;;;;;;;;;-143.90;100.00;55428.94;2064325;28;20016;-63
2022/04/10 04:53:12;;;;;;;;;;;;;;;-143.90;100.00;55436.88;2063853;28;19925;-64
2022/04/10 04:54:34;;;;;;;;;;;;;;;-143.90;100.00;55436.88;2065916;28;19921;-63
2022/04/10 04:55:54;;;;;;;;;;;;;;;-143.90;100.00;55460.69;2066015;28;20011;-64
2022/04/10 04:57:15;;;;;;;;;;;;;;;-143.90;100.00;55420.97;2070565;28;19928;-63
2022/04/10 04:58:37;;;;;;;;;;;;;;;-143.90;100.00;55488.50;2067394;28;20093;-64
2022/04/10 04:59:58;;;;;;;;;;;;;;;-143.90;100.00;55405.09;2063656;28;20684;-64
2022/04/10 05:01:20;;;;;;;;;;;;;;;-143.90;100.00;55413.03;2071275;28;19953;-63
2022/04/10 05:02:41;;;;;;;;;;;;;;;-143.90;100.00;55424.97;2068798;28;20488;-63
2022/04/10 05:04:02;;;;;;;;;;;;;;;-143.90;100.00;55472.63;2063348;28;20436;-64
2022/04/10 05:05:22;;;;;;;;;;;;;;;-143.90;100.00;55411.06;2065200;28;20448;-64
2022/04/10 05:06:43;;;;;;;;;;;;;;;-143.90;100.00;55420.97;2068054;28;19936;-63
2022/04/10 05:08:04;;;;;;;;;;;;;;;-143.90;100.00;55432.91;2064540;28;19921;-64
2022/04/10 05:09:25;;;;;;;;;;;;;;;-143.90;100.00;55436.88;2063211;28;19929;-64
2022/04/10 05:10:47;;;;;;;;;;;;;;;-143.90;100.00;55417.00;2066578;28;19929;-64
2022/04/10 05:12:08;;;;;;;;;;;;;;;-143.90;100.00;55432.91;2064209;28;19979;-65
2022/04/10 05:13:30;;;;;;;;;;;;;;;-143.90;100.00;55436.88;2066703;28;20004;-63
2022/04/10 05:14:51;;;;;;;;;;;;;;;-143.90;100.00;55407.09;2066377;28;19932;-64
2022/04/10 05:16:13;;;;;;;;;;;;;;;-143.90;100.00;55440.84;2066040;28;20009;-63
2022/04/10 05:17:38;;;;;;;;;;;;;;;-143.90;100.00;55452.75;2070882;28;19928;-64
2022/04/10 05:19:00;;;;;;;;;;;;;;;-143.90;100.00;55456.72;2064563;28;19922;-64
2022/04/10 05:20:21;;;;;;;;;;;;;;;-143.90;100.00;55417.00;2070865;28;19917;-64
2022/04/10 05:21:52;;;;;;;;;;;;;;;-143.90;100.00;55446.81;2067396;28;20017;-65
2022/04/10 05:23:17;;;;;;;;;;;;;;;-143.90;100.00;55438.84;2062937;28;19975;-64
2022/04/10 05:24:39;;;;;;;;;;;;;;;-143.90;100.00;55397.16;2071973;28;19928;-63
2022/04/10 05:26:00;;;;;;;;;;;;;;;-143.90;100.00;55434.88;2068302;28;20320;-63
2022/04/10 05:27:22;;;;;;;;;;;;;;;-143.90;100.00;55413.03;2071030;28;20443;-64
2022/04/10 05:28:43;;;;;;;;;;;;;;;-143.90;100.00;55417.00;2065593;28;20307;-62
2022/04/10 05:30:04;;;;;;;;;;;;;;;-143.90;100.00;55430.91;2070283;28;19925;-63
2022/04/10 05:31:26;;;;;;;;;;;;;;;-143.90;100.00;55442.81;2065493;28;20393;-63
2022/04/10 05:32:46;;;;;;;;;;;;;;;-143.90;100.00;55430.91;2070715;28;19967;-64
2022/04/10 05:34:08;;;;;;;;;;;;;;;-143.90;100.00;55420.97;2065109;28;20068;-64
2022/04/10 05:35:29;;;;;;;;;;;;;;;-143.90;100.00;55397.16;2070828;28;20088;-63
2022/04/10 05:36:50;;;;;;;;;;;;;;;-143.90;100.00;55424.97;2065185;28;19932;-63
2022/04/10 05:38:11;;;;;;;;;;;;;;;-143.90;100.00;55417.00;2066042;28;20407;-64
2022/04/10 05:39:33;;;;;;;;;;;;;;;-143.90;100.00;55434.88;2063636;28;20039;-64
2022/04/10 05:40:54;;;;;;;;;;;;;;;-143.90;100.00;55405.09;2062181;28;19921;-64
2022/04/10 05:42:16;;;;;;;;;;;;;;;-143.90;100.00;55444.81;2071482;28;19929;-64
2022/04/10 05:43:38;;;;;;;;;;;;;;;-143.90;100.00;55436.88;2066584;28;20000;-64
2022/04/10 05:45:02;;;;;;;;;;;;;;;-143.90;100.00;55436.88;2070651;28;20518;-63
2022/04/10 05:46:25;;;;;;;;;;;;;;;-143.90;100.00;55409.06;2075044;28;19913;-64
2022/04/10 05:47:50;;;;;;;;;;;;;;;-143.90;100.00;55417.00;2066029;28;19925;-64
2022/04/10 05:49:14;;;;;;;;;;;;;;;-143.90;100.00;55464.66;2050740;28;19945;-65
2022/04/10 05:50:35;;;;;;;;;;;;;;;-143.90;100.00;55422.97;2054556;28;19946;-65
2022/04/10 05:51:56;;;;;;;;;;;;;;;-143.90;100.00;55442.81;2063951;28;19922;-65
2022/04/10 05:53:17;;;;;;;;;;;;;;;-143.90;100.00;55411.06;2065138;28;20008;-64
2022/04/10 05:54:38;;;;;;;;;;;;;;;-143.90;100.00;55417.00;2063632;28;19925;-65
2022/04/10 05:55:59;;;;;;;;;;;;;;;-143.90;100.00;55432.91;2065412;28;19940;-63
2022/04/10 05:57:24;;;;;;;;;;;;;;;-143.90;100.00;55417.00;2062927;28;19922;-64
2022/04/10 05:58:46;;;;;;;;;;;;;;;-143.90;100.00;55405.09;2061545;28;20386;-64
2022/04/10 06:00:08;;;;;;;;;;;;;;;-143.90;100.00;55407.09;2072606;28;20438;-65
2022/04/10 06:01:35;;;;;;;;;;;;;;;-143.90;100.00;55397.16;2072755;28;19921;-63
2022/04/10 06:03:00;;;;;;;;;;;;;;;-143.90;100.00;55395.16;2066807;28;19966;-64
2022/04/10 06:04:21;;;;;;;;;;;;;;;-143.90;100.00;55428.94;2064722;28;19925;-65
2022/04/10 06:05:42;;;;;;;;;;;;;;;-143.90;100.00;55411.06;2071029;28;20363;-65
2022/04/10 06:07:11;;;;;;;;;;;;;;;-143.90;100.00;55444.81;2068474;28;19925;-64
2022/04/10 06:08:34;;;;;;;;;;;;;;;-143.90;100.00;55424.97;2065807;28;19969;-68
2022/04/10 06:09:55;;;;;;;;;;;;;;;-143.90;100.00;55428.94;2062904;28;19922;-67
2022/04/10 06:11:15;;;;;;;;;;;;;;;-143.90;100.00;55420.97;2069311;28;19968;-67
2022/04/10 06:12:37;;;;;;;;;;;;;;;-143.90;100.00;55397.16;2067062;28;19971;-67
2022/04/10 06:13:58;;;;;;;;;;;;;;;-143.90;100.00;55417.00;2062672;28;19926;-67
2022/04/10 06:15:22;;;;;;;;;;;;;;;-143.90;100.00;55397.16;2071017;28;19922;-68
2022/04/10 06:16:48;;;;;;;;;;;;;;;-143.90;100.00;55371.34;2066292;28;19925;-66
2022/04/10 06:18:11;;;;;;;;;;;;;;;-143.90;100.00;55432.91;2065958;28;20059;-67
2022/04/10 06:19:33;;;;;;;;;;;;;;;-143.90;100.00;55409.06;2064761;28;19933;-67
2022/04/10 06:20:54;;;;;;;;;;;;;;;-143.90;100.00;55405.09;2072178;28;19932;-64
2022/04/10 06:22:15;;;;;;;;;;;;;;;-143.90;100.00;55413.03;2064442;28;19922;-64
2022/04/10 06:23:36;;;;;;;;;;;;;;;-143.90;100.00;55430.91;2065728;28;19960;-65
2022/04/10 06:25:01;;;;;;;;;;;;;;;-143.90;100.00;55401.13;2071833;28;19921;-64
2022/04/10 06:26:22;;;;;;;;;;;;;;;-143.90;100.00;55452.75;2071374;28;19921;-65
2022/04/10 06:27:43;;;;;;;;;;;;;;;-143.90;100.00;55405.09;2066582;28;19926;-64
2022/04/10 06:29:05;;;;;;;;;;;;;;;-143.90;100.00;55401.13;2070815;28;19929;-64
2022/04/10 06:30:34;;;;;;;;;;;;;;;-143.90;98.99;55424.97;2064877;28;20381;-65
2022/04/10 06:31:55;;;;;;;;;;;;;;;-143.90;98.62;55415.03;2065312;28;20064;-63
2022/04/10 06:33:18;;;;;;;;;;;;;;;-143.90;96.24;55377.28;2048031;28;19932;-65
2022/04/10 06:34:42;;;;;;;;;;;;;;;-143.90;96.64;55405.09;2060301;28;20000;-65
2022/04/10 06:36:04;;;;;;;;;;;;;;;-143.90;94.42;55413.03;2069853;28;20590;-65
2022/04/10 06:37:25;;;;;;;;;;;;;;;-143.90;94.50;55401.13;2068126;28;19922;-64
2022/04/10 06:38:48;;;;;;;;;;;;;;;-143.90;94.98;55417.00;2072553;28;20373;-64
2022/04/10 06:40:14;;;;;;;;;;;;;;;-143.90;90.15;55413.03;2065383;28;20739;-65
2022/04/10 06:41:35;;;;;;;;;;;;;;;-143.90;90.87;55381.28;2069871;28;20026;-63
2022/04/10 06:43:01;;;;;;;;;;;;;;;-143.90;93.84;55385.25;2070922;28;20040;-64
2022/04/10 06:44:41;;;;;;;;;;;;;;;-143.90;91.51;55397.16;2074007;28;19975;-64
2022/04/10 06:46:34;;;;;;;;;;;;;;;-143.90;86.73;55369.34;2043034;28;20544;-65
2022/04/10 06:48:08;;;;;;;;;;;;;;;-143.90;84.40;55419.00;2072129;28;20000;-64
2022/04/10 06:49:36;;;;;;;;;;;;;;;-143.90;81.39;55405.09;2068273;28;19948;-63
2022/04/10 06:50:57;;;;;;;;;;;;;;;-143.90;81.56;55377.28;2071810;28;19921;-64